sensor_id;sensor_type;location;lat;lon;timestamp;P1;durP1;ratioP1;P2;durP2;ratioP2
76846;SDS011;65813;49.546;8.644;2023-06-22T03:46:54;13.27;;;8.65;;
76846;SDS011;65813;49.546;8.644;2023-06-22T03:50:54;11.07;;;7.67;;
76846;SDS011;65813;49.546;8.644;2023-06-22T03:54:55;12.20;;;8.03;;
76846;SDS011;65813;49.546;8.644;2023-06-22T03:58:55;9.32;;;7.20;;
76846;SDS011;65813;49.546;8.644;2023-06-22T04:02:56;9.57;;;6.60;;
76846;SDS011;65813;49.546;8.644;2023-06-22T04:06:57;8.93;;;6.35;;
76846;SDS011;65813;49.546;8.644;2023-06-22T04:10:57;8.77;;;5.97;;
76846;SDS011;65813;49.546;8.644;2023-06-22T04:14:57;9.90;;;5.87;;
76846;SDS011;65813;49.546;8.644;2023-06-22T04:18:58;8.93;;;5.90;;
76846;SDS011;65813;49.546;8.644;2023-06-22T04:22:58;8.83;;;6.37;;
76846;SDS011;65813;49.546;8.644;2023-06-22T04:26:58;9.17;;;5.83;;
76846;SDS011;65813;49.546;8.644;2023-06-22T04:31:02;7.82;;;5.47;;
76846;SDS011;65813;49.546;8.644;2023-06-22T04:35:03;9.48;;;6.72;;
76846;SDS011;65813;49.546;8.644;2023-06-22T04:39:07;10.55;;;6.38;;
76846;SDS011;65813;49.546;8.644;2023-06-22T04:43:09;8.80;;;6.40;;
76846;SDS011;65813;49.546;8.644;2023-06-22T04:47:12;8.50;;;6.00;;
76846;SDS011;65813;49.546;8.644;2023-06-22T04:51:12;9.75;;;5.82;;
76846;SDS011;65813;49.546;8.644;2023-06-22T04:55:12;9.03;;;7.00;;
76846;SDS011;65813;49.546;8.644;2023-06-22T04:59:18;8.75;;;6.18;;
76846;SDS011;65813;49.546;8.644;2023-06-22T05:03:18;10.13;;;6.30;;
76846;SDS011;65813;49.546;8.644;2023-06-22T05:07:19;8.03;;;5.80;;
76846;SDS011;65813;49.546;8.644;2023-06-22T05:11:19;8.90;;;6.07;;
76846;SDS011;65813;49.546;8.644;2023-06-22T05:15:19;10.67;;;6.30;;
76846;SDS011;65813;49.546;8.644;2023-06-22T05:19:19;10.87;;;6.27;;
76846;SDS011;65813;49.546;8.644;2023-06-22T05:23:20;9.43;;;5.90;;
76846;SDS011;65813;49.546;8.644;2023-06-22T05:27:20;8.15;;;6.40;;
76846;SDS011;65813;49.546;8.644;2023-06-22T05:31:21;11.07;;;6.50;;
76846;SDS011;65813;49.546;8.644;2023-06-22T05:35:21;11.23;;;7.32;;
76846;SDS011;65813;49.546;8.644;2023-06-22T05:39:22;12.07;;;6.90;;
76846;SDS011;65813;49.546;8.644;2023-06-22T05:43:22;10.90;;;7.27;;
76846;SDS011;65813;49.546;8.644;2023-06-22T05:47:22;12.23;;;7.87;;
76846;SDS011;65813;49.546;8.644;2023-06-22T05:51:23;9.83;;;7.10;;
76846;SDS011;65813;49.546;8.644;2023-06-22T05:55:23;9.30;;;6.87;;
76846;SDS011;65813;49.546;8.644;2023-06-22T05:59:23;14.10;;;9.43;;
76846;SDS011;65813;49.546;8.644;2023-06-22T06:03:24;9.33;;;7.30;;
76846;SDS011;65813;49.546;8.644;2023-06-22T06:07:24;9.20;;;6.67;;
76846;SDS011;65813;49.546;8.644;2023-06-22T06:11:25;12.07;;;7.88;;
76846;SDS011;65813;49.546;8.644;2023-06-22T06:15:26;10.43;;;6.82;;
76846;SDS011;65813;49.546;8.644;2023-06-22T06:19:26;11.63;;;6.90;;
76846;SDS011;65813;49.546;8.644;2023-06-22T06:23:26;8.17;;;5.97;;
76846;SDS011;65813;49.546;8.644;2023-06-22T06:27:27;11.90;;;7.07;;
76846;SDS011;65813;49.546;8.644;2023-06-22T06:31:29;11.10;;;6.40;;
76846;SDS011;65813;49.546;8.644;2023-06-22T06:35:30;10.00;;;6.80;;
76846;SDS011;65813;49.546;8.644;2023-06-22T06:39:30;9.00;;;6.10;;
76846;SDS011;65813;49.546;8.644;2023-06-22T06:43:31;8.33;;;6.43;;
76846;SDS011;65813;49.546;8.644;2023-06-22T06:47:31;9.23;;;6.53;;
76846;SDS011;65813;49.546;8.644;2023-06-22T06:51:31;7.83;;;6.43;;
76846;SDS011;65813;49.546;8.644;2023-06-22T06:55:32;9.10;;;6.30;;
76846;SDS011;65813;49.546;8.644;2023-06-22T06:59:35;9.85;;;6.55;;
76846;SDS011;65813;49.546;8.644;2023-06-22T07:03:35;8.13;;;6.03;;
76846;SDS011;65813;49.546;8.644;2023-06-22T07:07:35;9.13;;;6.23;;
76846;SDS011;65813;49.546;8.644;2023-06-22T07:11:36;8.48;;;5.88;;
76846;SDS011;65813;49.546;8.644;2023-06-22T07:15:37;8.90;;;5.10;;
76846;SDS011;65813;49.546;8.644;2023-06-22T07:19:37;8.00;;;5.03;;
76846;SDS011;65813;49.546;8.644;2023-06-22T07:23:38;7.85;;;5.25;;
76846;SDS011;65813;49.546;8.644;2023-06-22T07:27:39;6.90;;;4.60;;
76846;SDS011;65813;49.546;8.644;2023-06-22T07:31:44;6.88;;;4.85;;
76846;SDS011;65813;49.546;8.644;2023-06-22T07:35:44;7.15;;;4.47;;
76846;SDS011;65813;49.546;8.644;2023-06-22T07:39:45;8.45;;;5.10;;
76846;SDS011;65813;49.546;8.644;2023-06-22T07:43:45;7.17;;;5.00;;
76846;SDS011;65813;49.546;8.644;2023-06-22T07:47:46;8.77;;;5.13;;
76846;SDS011;65813;49.546;8.644;2023-06-22T07:51:46;10.48;;;5.32;;
76846;SDS011;65813;49.546;8.644;2023-06-22T07:55:46;8.27;;;5.77;;
76846;SDS011;65813;49.546;8.644;2023-06-22T07:59:47;6.80;;;4.67;;
76846;SDS011;65813;49.546;8.644;2023-06-22T08:03:50;9.27;;;5.20;;
76846;SDS011;65813;49.546;8.644;2023-06-22T08:07:50;9.93;;;5.22;;
76846;SDS011;65813;49.546;8.644;2023-06-22T08:11:51;8.20;;;5.05;;
76846;SDS011;65813;49.546;8.644;2023-06-22T08:15:51;7.23;;;5.03;;
76846;SDS011;65813;49.546;8.644;2023-06-22T08:19:51;7.03;;;4.80;;
76846;SDS011;65813;49.546;8.644;2023-06-22T08:23:52;8.57;;;5.30;;
76846;SDS011;65813;49.546;8.644;2023-06-22T08:27:52;7.47;;;4.83;;
76846;SDS011;65813;49.546;8.644;2023-06-22T08:31:52;7.77;;;5.70;;
76846;SDS011;65813;49.546;8.644;2023-06-22T08:35:52;8.50;;;4.60;;
76846;SDS011;65813;49.546;8.644;2023-06-22T08:39:53;5.93;;;4.47;;
76846;SDS011;65813;49.546;8.644;2023-06-22T08:43:53;7.32;;;4.80;;
76846;SDS011;65813;49.546;8.644;2023-06-22T08:47:54;6.50;;;4.60;;
76846;SDS011;65813;49.546;8.644;2023-06-22T08:51:54;6.70;;;4.60;;
76846;SDS011;65813;49.546;8.644;2023-06-22T08:55:56;7.53;;;4.40;;
76846;SDS011;65813;49.546;8.644;2023-06-22T08:59:57;6.50;;;4.68;;
76846;SDS011;65813;49.546;8.644;2023-06-22T09:04:00;7.25;;;4.68;;
76846;SDS011;65813;49.546;8.644;2023-06-22T09:08:00;6.03;;;4.18;;
76846;SDS011;65813;49.546;8.644;2023-06-22T09:12:01;7.43;;;5.23;;
76846;SDS011;65813;49.546;8.644;2023-06-22T09:16:01;8.63;;;5.40;;
76846;SDS011;65813;49.546;8.644;2023-06-22T09:20:02;7.57;;;5.30;;
76846;SDS011;65813;49.546;8.644;2023-06-22T09:24:05;11.13;;;5.35;;
76846;SDS011;65813;49.546;8.644;2023-06-22T09:28:06;9.88;;;4.80;;
76846;SDS011;65813;49.546;8.644;2023-06-22T09:32:06;11.10;;;4.57;;
76846;SDS011;65813;49.546;8.644;2023-06-22T09:36:07;7.38;;;4.57;;
76846;SDS011;65813;49.546;8.644;2023-06-22T09:40:07;9.30;;;4.50;;
76846;SDS011;65813;49.546;8.644;2023-06-22T09:44:10;9.07;;;4.88;;
76846;SDS011;65813;49.546;8.644;2023-06-22T09:48:10;7.73;;;5.43;;
76846;SDS011;65813;49.546;8.644;2023-06-22T09:52:11;7.03;;;4.43;;
76846;SDS011;65813;49.546;8.644;2023-06-22T09:56:11;10.45;;;4.43;;
76846;SDS011;65813;49.546;8.644;2023-06-22T10:00:16;8.60;;;4.60;;
76846;SDS011;65813;49.546;8.644;2023-06-22T10:04:16;7.88;;;4.47;;
76846;SDS011;65813;49.546;8.644;2023-06-22T10:08:17;11.63;;;4.85;;
76846;SDS011;65813;49.546;8.644;2023-06-22T10:12:17;8.60;;;4.67;;
76846;SDS011;65813;49.546;8.644;2023-06-22T10:16:17;9.23;;;4.73;;
76846;SDS011;65813;49.546;8.644;2023-06-22T10:20:18;6.87;;;4.70;;
76846;SDS011;65813;49.546;8.644;2023-06-22T10:24:18;9.93;;;4.80;;
76846;SDS011;65813;49.546;8.644;2023-06-22T10:28:18;10.37;;;5.20;;
76846;SDS011;65813;49.546;8.644;2023-06-22T10:32:19;8.25;;;4.70;;
76846;SDS011;65813;49.546;8.644;2023-06-22T10:36:19;8.87;;;4.77;;
76846;SDS011;65813;49.546;8.644;2023-06-22T10:40:20;10.40;;;4.90;;
76846;SDS011;65813;49.546;8.644;2023-06-22T10:44:21;7.60;;;4.78;;
76846;SDS011;65813;49.546;8.644;2023-06-22T10:48:21;9.75;;;4.80;;
76846;SDS011;65813;49.546;8.644;2023-06-22T10:52:21;9.30;;;4.90;;
76846;SDS011;65813;49.546;8.644;2023-06-22T10:56:23;9.43;;;5.07;;
76846;SDS011;65813;49.546;8.644;2023-06-22T11:00:23;8.88;;;4.97;;
76846;SDS011;65813;49.546;8.644;2023-06-22T11:04:24;9.30;;;4.80;;
76846;SDS011;65813;49.546;8.644;2023-06-22T11:08:25;8.32;;;5.25;;
76846;SDS011;65813;49.546;8.644;2023-06-22T11:12:25;8.00;;;5.00;;
76846;SDS011;65813;49.546;8.644;2023-06-22T11:16:25;7.93;;;5.70;;
76846;SDS011;65813;49.546;8.644;2023-06-22T11:20:26;9.25;;;5.68;;
76846;SDS011;65813;49.546;8.644;2023-06-22T11:24:26;10.30;;;5.30;;
76846;SDS011;65813;49.546;8.644;2023-06-22T11:28:27;11.27;;;5.40;;
76846;SDS011;65813;49.546;8.644;2023-06-22T11:32:27;8.20;;;5.10;;
76846;SDS011;65813;49.546;8.644;2023-06-22T11:36:28;9.80;;;5.43;;
76846;SDS011;65813;49.546;8.644;2023-06-22T11:40:29;9.10;;;5.28;;
76846;SDS011;65813;49.546;8.644;2023-06-22T11:44:30;9.52;;;4.97;;
76846;SDS011;65813;49.546;8.644;2023-06-22T11:48:30;6.60;;;4.90;;
76846;SDS011;65813;49.546;8.644;2023-06-22T11:52:30;8.67;;;5.03;;
76846;SDS011;65813;49.546;8.644;2023-06-22T11:56:32;8.27;;;5.50;;
76846;SDS011;65813;49.546;8.644;2023-06-22T12:00:33;8.38;;;5.10;;
76846;SDS011;65813;49.546;8.644;2023-06-22T12:04:33;10.30;;;5.47;;
76846;SDS011;65813;49.546;8.644;2023-06-22T12:08:34;8.07;;;5.33;;
76846;SDS011;65813;49.546;8.644;2023-06-22T12:12:34;7.87;;;5.10;;
76846;SDS011;65813;49.546;8.644;2023-06-22T12:16:34;10.43;;;5.47;;
76846;SDS011;65813;49.546;8.644;2023-06-22T12:20:35;10.15;;;5.55;;
76846;SDS011;65813;49.546;8.644;2023-06-22T12:24:35;9.63;;;5.80;;
76846;SDS011;65813;49.546;8.644;2023-06-22T12:28:35;8.90;;;5.47;;
76846;SDS011;65813;49.546;8.644;2023-06-22T12:32:36;10.63;;;5.87;;
76846;SDS011;65813;49.546;8.644;2023-06-22T12:36:36;8.77;;;4.83;;
76846;SDS011;65813;49.546;8.644;2023-06-22T12:40:36;9.33;;;4.70;;
76846;SDS011;65813;49.546;8.644;2023-06-22T12:44:40;9.45;;;4.63;;
76846;SDS011;65813;49.546;8.644;2023-06-22T12:48:41;9.60;;;5.00;;
76846;SDS011;65813;49.546;8.644;2023-06-22T12:52:42;6.78;;;4.25;;
76846;SDS011;65813;49.546;8.644;2023-06-22T12:56:43;11.03;;;4.67;;
76846;SDS011;65813;49.546;8.644;2023-06-22T13:00:45;10.23;;;4.45;;
76846;SDS011;65813;49.546;8.644;2023-06-22T13:04:45;9.35;;;4.03;;
76846;SDS011;65813;49.546;8.644;2023-06-22T13:08:46;11.30;;;4.93;;
76846;SDS011;65813;49.546;8.644;2023-06-22T13:12:46;9.07;;;4.80;;
76846;SDS011;65813;49.546;8.644;2023-06-22T13:16:46;9.67;;;4.87;;
76846;SDS011;65813;49.546;8.644;2023-06-22T13:20:47;10.73;;;5.23;;
76846;SDS011;65813;49.546;8.644;2023-06-22T13:24:47;9.75;;;4.72;;
76846;SDS011;65813;49.546;8.644;2023-06-22T13:28:47;9.47;;;4.70;;
76846;SDS011;65813;49.546;8.644;2023-06-22T13:32:48;9.93;;;4.60;;
76846;SDS011;65813;49.546;8.644;2023-06-22T13:36:48;9.23;;;4.55;;
76846;SDS011;65813;49.546;8.644;2023-06-22T13:40:49;8.73;;;4.77;;
76846;SDS011;65813;49.546;8.644;2023-06-22T13:44:49;9.32;;;4.90;;
76846;SDS011;65813;49.546;8.644;2023-06-22T13:48:50;9.27;;;5.50;;
76846;SDS011;65813;49.546;8.644;2023-06-22T13:52:50;11.55;;;4.85;;
76846;SDS011;65813;49.546;8.644;2023-06-22T13:56:51;10.03;;;4.47;;
76846;SDS011;65813;49.546;8.644;2023-06-22T14:00:51;11.20;;;4.93;;
76846;SDS011;65813;49.546;8.644;2023-06-22T14:04:51;9.50;;;4.82;;
76846;SDS011;65813;49.546;8.644;2023-06-22T14:08:52;7.45;;;4.47;;
76846;SDS011;65813;49.546;8.644;2023-06-22T14:12:52;10.17;;;4.67;;
76846;SDS011;65813;49.546;8.644;2023-06-22T14:16:53;8.35;;;4.45;;
76846;SDS011;65813;49.546;8.644;2023-06-22T14:20:53;11.20;;;4.67;;
76846;SDS011;65813;49.546;8.644;2023-06-22T14:24:54;9.65;;;4.72;;
76846;SDS011;65813;49.546;8.644;2023-06-22T14:28:55;9.35;;;4.68;;
76846;SDS011;65813;49.546;8.644;2023-06-22T14:32:56;7.72;;;4.30;;
76846;SDS011;65813;49.546;8.644;2023-06-22T14:36:57;10.33;;;5.20;;
76846;SDS011;65813;49.546;8.644;2023-06-22T14:40:57;11.00;;;5.00;;
76846;SDS011;65813;49.546;8.644;2023-06-22T14:44:57;11.97;;;5.33;;
76846;SDS011;65813;49.546;8.644;2023-06-22T14:48:58;10.23;;;5.10;;
76846;SDS011;65813;49.546;8.644;2023-06-22T14:52:58;10.97;;;5.07;;
76846;SDS011;65813;49.546;8.644;2023-06-22T14:56:58;10.93;;;5.00;;
76846;SDS011;65813;49.546;8.644;2023-06-22T15:00:59;10.70;;;5.13;;
76846;SDS011;65813;49.546;8.644;2023-06-22T15:05:00;11.48;;;4.75;;
76846;SDS011;65813;49.546;8.644;2023-06-22T15:09:00;8.02;;;4.82;;
76846;SDS011;65813;49.546;8.644;2023-06-22T15:13:01;10.45;;;5.65;;
76846;SDS011;65813;49.546;8.644;2023-06-22T15:17:01;10.17;;;5.40;;
76846;SDS011;65813;49.546;8.644;2023-06-22T15:21:02;10.43;;;5.63;;
76846;SDS011;65813;49.546;8.644;2023-06-22T15:25:03;12.40;;;5.80;;
76846;SDS011;65813;49.546;8.644;2023-06-22T15:29:04;9.82;;;5.65;;
76846;SDS011;65813;49.546;8.644;2023-06-22T15:33:04;8.83;;;5.27;;
76846;SDS011;65813;49.546;8.644;2023-06-22T15:37:04;11.15;;;5.97;;
76846;SDS011;65813;49.546;8.644;2023-06-22T15:41:05;9.15;;;5.15;;
76846;SDS011;65813;49.546;8.644;2023-06-22T15:45:06;11.40;;;5.93;;
76846;SDS011;65813;49.546;8.644;2023-06-22T15:49:07;11.65;;;6.43;;
76846;SDS011;65813;49.546;8.644;2023-06-22T15:53:08;12.43;;;5.20;;
76846;SDS011;65813;49.546;8.644;2023-06-22T15:57:08;10.57;;;4.95;;
76846;SDS011;65813;49.546;8.644;2023-06-22T16:01:12;10.25;;;5.43;;
76846;SDS011;65813;49.546;8.644;2023-06-22T16:05:12;12.63;;;5.40;;
76846;SDS011;65813;49.546;8.644;2023-06-22T16:09:13;9.73;;;5.22;;
76846;SDS011;65813;49.546;8.644;2023-06-22T16:13:14;11.15;;;5.82;;
76846;SDS011;65813;49.546;8.644;2023-06-22T16:17:15;11.07;;;5.25;;
76846;SDS011;65813;49.546;8.644;2023-06-22T16:21:16;10.88;;;5.53;;
76846;SDS011;65813;49.546;8.644;2023-06-22T16:25:16;14.03;;;5.47;;
76846;SDS011;65813;49.546;8.644;2023-06-22T16:29:16;8.60;;;5.27;;
76846;SDS011;65813;49.546;8.644;2023-06-22T16:33:16;12.00;;;5.83;;
76846;SDS011;65813;49.546;8.644;2023-06-22T16:37:17;14.03;;;5.53;;
76846;SDS011;65813;49.546;8.644;2023-06-22T16:41:18;12.20;;;5.30;;
76846;SDS011;65813;49.546;8.644;2023-06-22T16:45:19;11.80;;;5.30;;
76846;SDS011;65813;49.546;8.644;2023-06-22T16:49:20;11.70;;;5.72;;
76846;SDS011;65813;49.546;8.644;2023-06-22T16:53:20;12.00;;;5.40;;
76846;SDS011;65813;49.546;8.644;2023-06-22T16:57:21;11.45;;;5.05;;
76846;SDS011;65813;49.546;8.644;2023-06-22T17:01:24;12.23;;;5.30;;
76846;SDS011;65813;49.546;8.644;2023-06-22T17:05:26;10.25;;;4.95;;
76846;SDS011;65813;49.546;8.644;2023-06-22T17:09:26;9.30;;;4.25;;
76846;SDS011;65813;49.546;8.644;2023-06-22T17:13:27;9.73;;;4.35;;
76846;SDS011;65813;49.546;8.644;2023-06-22T17:17:27;9.70;;;3.67;;
76846;SDS011;65813;49.546;8.644;2023-06-22T17:21:30;7.70;;;3.45;;
76846;SDS011;65813;49.546;8.644;2023-06-22T17:25:33;7.63;;;3.25;;
76846;SDS011;65813;49.546;8.644;2023-06-22T17:29:34;8.70;;;4.07;;
76846;SDS011;65813;49.546;8.644;2023-06-22T17:33:34;7.85;;;3.60;;
76846;SDS011;65813;49.546;8.644;2023-06-22T17:37:48;9.13;;;4.03;;
76846;SDS011;65813;49.546;8.644;2023-06-22T17:41:52;8.65;;;3.83;;
76846;SDS011;65813;49.546;8.644;2023-06-22T17:45:53;6.30;;;3.78;;
76846;SDS011;65813;49.546;8.644;2023-06-22T17:50:04;8.48;;;4.07;;
76846;SDS011;65813;49.546;8.644;2023-06-22T17:54:06;7.10;;;4.00;;
76846;SDS011;65813;49.546;8.644;2023-06-22T17:58:06;8.30;;;3.92;;
76846;SDS011;65813;49.546;8.644;2023-06-22T18:02:07;8.07;;;3.55;;
76846;SDS011;65813;49.546;8.644;2023-06-22T18:06:11;6.80;;;3.35;;
76846;SDS011;65813;49.546;8.644;2023-06-22T18:10:15;7.50;;;3.40;;
76846;SDS011;65813;49.546;8.644;2023-06-22T18:14:17;6.38;;;3.50;;
76846;SDS011;65813;49.546;8.644;2023-06-22T18:18:18;6.85;;;3.63;;
76846;SDS011;65813;49.546;8.644;2023-06-22T18:22:21;11.07;;;3.20;;
76846;SDS011;65813;49.546;8.644;2023-06-22T18:26:22;9.70;;;3.40;;
76846;SDS011;65813;49.546;8.644;2023-06-22T18:30:23;6.38;;;3.17;;
76846;SDS011;65813;49.546;8.644;2023-06-22T18:34:24;6.55;;;2.70;;
76846;SDS011;65813;49.546;8.644;2023-06-22T18:38:28;8.57;;;2.60;;
76846;SDS011;65813;49.546;8.644;2023-06-22T18:42:28;8.38;;;2.60;;
76846;SDS011;65813;49.546;8.644;2023-06-22T18:46:36;6.93;;;2.80;;
76846;SDS011;65813;49.546;8.644;2023-06-22T18:50:40;7.00;;;2.55;;
76846;SDS011;65813;49.546;8.644;2023-06-22T18:54:48;7.63;;;2.78;;
76846;SDS011;65813;49.546;8.644;2023-06-22T18:58:55;6.53;;;2.90;;
76846;SDS011;65813;49.546;8.644;2023-06-22T19:02:59;5.35;;;2.55;;
76846;SDS011;65813;49.546;8.644;2023-06-22T19:07:00;8.02;;;3.13;;
76846;SDS011;65813;49.546;8.644;2023-06-22T19:11:12;22.45;;;3.90;;
76846;SDS011;65813;49.546;8.644;2023-06-22T19:15:13;6.00;;;2.60;;
76846;SDS011;65813;49.546;8.644;2023-06-22T19:19:15;7.57;;;2.90;;
76846;SDS011;65813;49.546;8.644;2023-06-22T19:23:22;10.90;;;2.65;;
76846;SDS011;65813;49.546;8.644;2023-06-22T19:27:34;7.25;;;2.50;;
76846;SDS011;65813;49.546;8.644;2023-06-22T19:31:35;5.05;;;2.85;;
76846;SDS011;65813;49.546;8.644;2023-06-22T19:35:35;6.03;;;2.55;;
76846;SDS011;65813;49.546;8.644;2023-06-22T19:39:36;9.50;;;2.25;;
76846;SDS011;65813;49.546;8.644;2023-06-22T19:43:36;5.33;;;2.30;;
76846;SDS011;65813;49.546;8.644;2023-06-22T19:47:38;2.75;;;1.48;;
76846;SDS011;65813;49.546;8.644;2023-06-22T19:51:39;3.83;;;1.70;;
76846;SDS011;65813;49.546;8.644;2023-06-22T19:55:40;4.77;;;1.93;;
76846;SDS011;65813;49.546;8.644;2023-06-22T19:59:44;3.00;;;1.30;;
76846;SDS011;65813;49.546;8.644;2023-06-22T20:03:46;2.83;;;1.38;;
76846;SDS011;65813;49.546;8.644;2023-06-22T20:07:46;3.13;;;1.20;;
76846;SDS011;65813;49.546;8.644;2023-06-22T20:11:46;2.88;;;1.05;;
76846;SDS011;65813;49.546;8.644;2023-06-22T20:15:47;2.57;;;1.10;;
76846;SDS011;65813;49.546;8.644;2023-06-22T20:19:52;2.65;;;1.30;;
76846;SDS011;65813;49.546;8.644;2023-06-22T20:23:53;1.88;;;1.00;;
76846;SDS011;65813;49.546;8.644;2023-06-22T20:27:54;2.83;;;1.10;;
76846;SDS011;65813;49.546;8.644;2023-06-22T20:32:05;1.67;;;0.88;;
76846;SDS011;65813;49.546;8.644;2023-06-22T20:36:07;3.58;;;1.05;;
76846;SDS011;65813;49.546;8.644;2023-06-22T20:40:08;3.05;;;1.10;;
76846;SDS011;65813;49.546;8.644;2023-06-22T20:44:09;2.67;;;1.13;;
76846;SDS011;65813;49.546;8.644;2023-06-22T20:48:09;4.57;;;1.20;;
76846;SDS011;65813;49.546;8.644;2023-06-22T20:52:10;2.58;;;1.10;;
76846;SDS011;65813;49.546;8.644;2023-06-22T20:56:10;2.20;;;1.10;;
76846;SDS011;65813;49.546;8.644;2023-06-22T21:00:11;2.07;;;1.20;;
76846;SDS011;65813;49.546;8.644;2023-06-22T21:04:12;1.98;;;1.05;;
76846;SDS011;65813;49.546;8.644;2023-06-22T21:08:13;2.40;;;1.00;;
76846;SDS011;65813;49.546;8.644;2023-06-22T21:12:13;2.80;;;1.20;;
76846;SDS011;65813;49.546;8.644;2023-06-22T21:20:37;3.38;;;1.23;;
76846;SDS011;65813;49.546;8.644;2023-06-22T21:24:37;3.30;;;1.03;;
76846;SDS011;65813;49.546;8.644;2023-06-22T21:28:38;2.53;;;1.00;;
76846;SDS011;65813;49.546;8.644;2023-06-22T21:32:39;1.63;;;1.00;;
76846;SDS011;65813;49.546;8.644;2023-06-22T21:36:40;2.63;;;1.00;;
76846;SDS011;65813;49.546;8.644;2023-06-22T21:40:40;1.87;;;1.10;;
76846;SDS011;65813;49.546;8.644;2023-06-22T21:44:40;2.27;;;1.20;;
76846;SDS011;65813;49.546;8.644;2023-06-22T21:48:41;1.47;;;0.90;;
76846;SDS011;65813;49.546;8.644;2023-06-22T21:52:41;2.10;;;1.20;;
76846;SDS011;65813;49.546;8.644;2023-06-22T21:56:41;2.60;;;1.20;;
76846;SDS011;65813;49.546;8.644;2023-06-22T22:00:42;2.15;;;1.10;;
76846;SDS011;65813;49.546;8.644;2023-06-22T22:04:43;2.17;;;1.17;;
76846;SDS011;65813;49.546;8.644;2023-06-22T22:08:43;2.07;;;1.27;;
76846;SDS011;65813;49.546;8.644;2023-06-22T22:12:43;2.43;;;1.17;;
76846;SDS011;65813;49.546;8.644;2023-06-22T22:16:43;1.73;;;1.10;;
76846;SDS011;65813;49.546;8.644;2023-06-22T22:20:44;2.53;;;1.20;;
76846;SDS011;65813;49.546;8.644;2023-06-22T22:24:44;2.40;;;1.30;;
76846;SDS011;65813;49.546;8.644;2023-06-22T22:28:45;2.60;;;1.13;;
76846;SDS011;65813;49.546;8.644;2023-06-22T22:32:45;2.47;;;1.17;;
76846;SDS011;65813;49.546;8.644;2023-06-22T22:36:46;2.33;;;1.08;;
76846;SDS011;65813;49.546;8.644;2023-06-22T22:40:46;2.50;;;1.00;;
76846;SDS011;65813;49.546;8.644;2023-06-22T22:44:47;2.30;;;1.10;;
76846;SDS011;65813;49.546;8.644;2023-06-22T22:48:47;2.37;;;1.20;;
76846;SDS011;65813;49.546;8.644;2023-06-22T22:52:47;3.00;;;1.45;;
76846;SDS011;65813;49.546;8.644;2023-06-22T22:56:48;2.60;;;1.33;;
76846;SDS011;65813;49.546;8.644;2023-06-22T23:00:48;1.73;;;1.07;;
76846;SDS011;65813;49.546;8.644;2023-06-22T23:04:55;3.97;;;1.20;;
76846;SDS011;65813;49.546;8.644;2023-06-22T23:08:59;1.85;;;0.90;;
76846;SDS011;65813;49.546;8.644;2023-06-22T23:12:59;1.83;;;0.80;;
76846;SDS011;65813;49.546;8.644;2023-06-22T23:17:00;1.67;;;0.70;;
76846;SDS011;65813;49.546;8.644;2023-06-22T23:21:00;1.67;;;0.60;;
76846;SDS011;65813;49.546;8.644;2023-06-22T23:25:00;1.00;;;0.70;;
76846;SDS011;65813;49.546;8.644;2023-06-22T23:29:01;1.30;;;0.80;;
76846;SDS011;65813;49.546;8.644;2023-06-22T23:33:01;3.45;;;1.40;;
76846;SDS011;65813;49.546;8.644;2023-06-22T23:37:02;2.92;;;1.45;;
76846;SDS011;65813;49.546;8.644;2023-06-22T23:41:03;2.60;;;1.30;;
76846;SDS011;65813;49.546;8.644;2023-06-22T23:45:04;2.55;;;1.30;;
76846;SDS011;65813;49.546;8.644;2023-06-22T23:49:04;3.67;;;1.70;;
76846;SDS011;65813;49.546;8.644;2023-06-22T23:53:05;3.73;;;1.90;;
76846;SDS011;65813;49.546;8.644;2023-06-22T23:57:06;3.95;;;2.13;;
